Back to Top

Language: 

My Weather Underground Personal Weather Station Historical Data with Graphs...

Delerius Weather Station Historical Data
Daily Summary for November 14, 2017 Units:  Metric    English   Both
« Previous Day
Next Day »
Daily Weekly Monthly Yearly Custom
  High: Low: Average:
Temperature: 12.8 °C 7.6 °C 10.5 °C
Dew Point: 10.4 °C 5.7 °C 8.7 °C
Humidity: 93 % 85 % 89 %
Wind Speed: 32.2 km/h 0 km/h 11.9 km/h
Wind Gust: 53.1 km/h - -
Wind:- - West
Pressure: 1021.2 hPa 1017.5 hPa -
Precipitation: 0 mm    
Historical Graphs
 
 
Tabular Data for November 14, 2017
Time Temperature Dew Point Pressure Wind Wind Speed Wind Gust Humidity Rainfall Rate (Hourly) solar Conditions
00:03 7.6 °C 5.7 °C 1020.2 hPa SW 6.4 km/h 22.5 km/h 88 % 0 mm 0 W/m2
00:08 7.7 °C 5.8 °C 1020.2 hPa SW 11.3 km/h 17.7 km/h 88 % 0 mm 0 W/m2
00:13 7.8 °C 5.9 °C 1019.9 hPa SW 4.8 km/h 16.1 km/h 88 % 0 mm 0 W/m2
00:18 7.9 °C 6.1 °C 1019.9 hPa WSW 9.7 km/h 17.7 km/h 88 % 0 mm 0 W/m2
00:23 8 °C 5.9 °C 1019.9 hPa West 4.8 km/h 11.3 km/h 87 % 0 mm 0 W/m2
00:28 8.1 °C 6.1 °C 1019.9 hPa SW 8 km/h 14.5 km/h 87 % 0 mm 0 W/m2
00:33 8.2 °C 6.2 °C 1019.5 hPa WSW 8 km/h 20.9 km/h 87 % 0 mm 0 W/m2
00:39 8.2 °C 6.2 °C 1019.9 hPa West 8 km/h 17.7 km/h 87 % 0 mm 0 W/m2
00:44 8.3 °C 6.3 °C 1019.5 hPa WSW 11.3 km/h 22.5 km/h 87 % 0 mm 0 W/m2
00:49 8.3 °C 6.3 °C 1019.5 hPa WSW 9.7 km/h 16.1 km/h 87 % 0 mm 0 W/m2
00:54 8.4 °C 6.3 °C 1019.5 hPa WSW 14.5 km/h 30.6 km/h 87 % 0 mm 0 W/m2
00:59 8.6 °C 6.6 °C 1019.2 hPa WSW 14.5 km/h 25.7 km/h 87 % 0 mm 0 W/m2
01:04 8.7 °C 6.7 °C 1019.2 hPa West 22.5 km/h 35.4 km/h 87 % 0 mm 0 W/m2
01:09 8.9 °C 6.7 °C 1019.2 hPa WSW 24.1 km/h 38.6 km/h 86 % 0 mm 0 W/m2
01:14 9 °C 6.8 °C 1019.2 hPa West 22.5 km/h 35.4 km/h 86 % 0 mm 0 W/m2
01:19 9 °C 6.8 °C 1018.8 hPa West 16.1 km/h 30.6 km/h 86 % 0 mm 0 W/m2
01:24 9.1 °C 6.9 °C 1018.8 hPa WSW 19.3 km/h 32.2 km/h 86 % 0 mm 0 W/m2
01:29 9.1 °C 6.7 °C 1018.8 hPa WSW 24.1 km/h 38.6 km/h 85 % 0 mm 0 W/m2
01:34 9.2 °C 6.8 °C 1019.2 hPa West 17.7 km/h 29 km/h 85 % 0 mm 0 W/m2
01:39 9.2 °C 6.8 °C 1019.2 hPa West 17.7 km/h 29 km/h 85 % 0 mm 0 W/m2
01:44 9.2 °C 6.8 °C 1018.8 hPa West 14.5 km/h 22.5 km/h 85 % 0 mm 0 W/m2
01:49 9.2 °C 6.8 °C 1019.2 hPa West 16.1 km/h 29 km/h 85 % 0 mm 0 W/m2
01:54 9.2 °C 7 °C 1018.8 hPa WSW 14.5 km/h 20.9 km/h 86 % 0 mm 0 W/m2
01:59 9.2 °C 7 °C 1018.8 hPa West 11.3 km/h 17.7 km/h 86 % 0 mm 0 W/m2
02:04 9.2 °C 7 °C 1018.8 hPa WSW 8 km/h 11.3 km/h 86 % 0 mm 0 W/m2
02:09 9.2 °C 7 °C 1018.8 hPa WSW 8 km/h 14.5 km/h 86 % 0 mm 0 W/m2
02:14 9.3 °C 7.1 °C 1018.8 hPa WSW 4.8 km/h 8 km/h 86 % 0 mm 0 W/m2
02:19 9.3 °C 7.1 °C 1018.5 hPa WSW 14.5 km/h 22.5 km/h 86 % 0 mm 0 W/m2
02:24 9.3 °C 7.1 °C 1018.5 hPa SW 14.5 km/h 20.9 km/h 86 % 0 mm 0 W/m2
02:29 9.3 °C 7.1 °C 1018.5 hPa SW 11.3 km/h 16.1 km/h 86 % 0 mm 0 W/m2
02:34 9.3 °C 7.1 °C 1018.5 hPa WSW 16.1 km/h 24.1 km/h 86 % 0 mm 0 W/m2
02:39 9.4 °C 7.2 °C 1018.5 hPa WSW 12.9 km/h 17.7 km/h 86 % 0 mm 0 W/m2
02:44 9.4 °C 7.2 °C 1018.5 hPa West 14.5 km/h 22.5 km/h 86 % 0 mm 0 W/m2
02:49 9.4 °C 7.2 °C 1018.5 hPa West 11.3 km/h 20.9 km/h 86 % 0 mm 0 W/m2
02:52 9.4 °C 7.2 °C 1018.5 hPa West 9.7 km/h 16.1 km/h 86 % 0 mm 0 W/m2
02:57 9.4 °C 7.2 °C 1018.2 hPa West 17.7 km/h 25.7 km/h 86 % 0 mm 0 W/m2
02:59 9.4 °C 7.3 °C 1018.2 hPa West 17.7 km/h 30.6 km/h 87 % 0 mm 0 W/m2
03:04 9.4 °C 7.3 °C 1018.2 hPa West 14.5 km/h 24.1 km/h 87 % 0 mm 0 W/m2
03:09 9.3 °C 7.2 °C 1018.2 hPa West 17.7 km/h 24.1 km/h 87 % 0 mm 0 W/m2
03:14 9.3 °C 7.2 °C 1017.8 hPa West 16.1 km/h 25.7 km/h 87 % 0 mm 0 W/m2
03:19 9.2 °C 7.2 °C 1017.8 hPa West 12.9 km/h 20.9 km/h 87 % 0 mm 0 W/m2
03:21 9.1 °C 7.1 °C 1018.2 hPa West 16.1 km/h 30.6 km/h 87 % 0 mm 0 W/m2
03:26 9.1 °C 7.1 °C 1017.8 hPa West 16.1 km/h 30.6 km/h 87 % 0 mm 0 W/m2
03:28 9 °C 6.9 °C 1017.8 hPa West 22.5 km/h 40.2 km/h 87 % 0 mm 0 W/m2
03:33 8.9 °C 6.8 °C 1017.8 hPa West 20.9 km/h 33.8 km/h 87 % 0 mm 0 W/m2
03:38 8.9 °C 7 °C 1017.8 hPa West 24.1 km/h 40.2 km/h 88 % 0 mm 0 W/m2
03:43 8.9 °C 7 °C 1017.8 hPa WNW 29 km/h 43.5 km/h 88 % 0 mm 0 W/m2
03:48 9 °C 7.1 °C 1017.8 hPa West 25.7 km/h 38.6 km/h 88 % 0 mm 0 W/m2
03:53 9 °C 7.1 °C 1017.8 hPa West 32.2 km/h 46.7 km/h 88 % 0 mm 0 W/m2
03:58 9 °C 7.1 °C 1017.8 hPa West 30.6 km/h 45.1 km/h 88 % 0 mm 0 W/m2
04:03 9 °C 7.1 °C 1017.8 hPa West 25.7 km/h 37 km/h 88 % 0 mm 0 W/m2
04:08 9 °C 7.3 °C 1017.8 hPa West 29 km/h 41.8 km/h 89 % 0 mm 0 W/m2
04:13 9 °C 7.3 °C 1017.8 hPa West 24.1 km/h 37 km/h 89 % 0 mm 0 W/m2
04:14 9 °C 7.3 °C 1017.8 hPa West 25.7 km/h 37 km/h 89 % 0 mm 0 W/m2
04:19 9 °C 7.3 °C 1017.8 hPa West 25.7 km/h 35.4 km/h 89 % 0 mm 0 W/m2
04:24 9.1 °C 7.4 °C 1017.8 hPa West 27.4 km/h 40.2 km/h 89 % 0 mm 0 W/m2
04:29 9.1 °C 7.4 °C 1017.8 hPa West 22.5 km/h 35.4 km/h 89 % 0 mm 0 W/m2
04:34 9.1 °C 7.4 °C 1017.8 hPa WNW 25.7 km/h 38.6 km/h 89 % 0 mm 0 W/m2
04:39 9.2 °C 7.5 °C 1018.2 hPa WNW 24.1 km/h 37 km/h 89 % 0 mm 0 W/m2
04:44 9.2 °C 7.5 °C 1018.2 hPa WNW 27.4 km/h 37 km/h 89 % 0 mm 0 W/m2
04:49 9.2 °C 7.5 °C 1018.2 hPa WNW 25.7 km/h 38.6 km/h 89 % 0 mm 0 W/m2
04:54 9.3 °C 7.6 °C 1018.2 hPa WNW 25.7 km/h 35.4 km/h 89 % 0 mm 0 W/m2
04:59 9.3 °C 7.6 °C 1018.2 hPa West 24.1 km/h 32.2 km/h 89 % 0 mm 0 W/m2
05:04 9.2 °C 7.5 °C 1018.2 hPa West 22.5 km/h 32.2 km/h 89 % 0 mm 0 W/m2
05:09 9.2 °C 7.5 °C 1018.2 hPa West 22.5 km/h 35.4 km/h 89 % 0 mm 0 W/m2
05:14 9.1 °C 7.4 °C 1017.8 hPa West 22.5 km/h 37 km/h 89 % 0 mm 0 W/m2
05:19 9.1 °C 7.4 °C 1017.8 hPa West 19.3 km/h 30.6 km/h 89 % 0 mm 0 W/m2
05:24 9.1 °C 7.6 °C 1017.8 hPa West 20.9 km/h 30.6 km/h 90 % 0 mm 0 W/m2
05:29 9.2 °C 7.7 °C 1017.8 hPa West 24.1 km/h 38.6 km/h 90 % 0 mm 0 W/m2
05:34 9.2 °C 7.7 °C 1017.5 hPa West 25.7 km/h 41.8 km/h 90 % 0 mm 0 W/m2
05:39 9.3 °C 7.7 °C 1017.5 hPa West 25.7 km/h 40.2 km/h 90 % 0 mm 0 W/m2
05:44 9.3 °C 7.7 °C 1017.8 hPa West 19.3 km/h 29 km/h 90 % 0 mm 0 W/m2
05:49 9.3 °C 7.7 °C 1017.8 hPa WNW 20.9 km/h 32.2 km/h 90 % 0 mm 0 W/m2
05:54 9.4 °C 7.8 °C 1017.8 hPa WNW 25.7 km/h 38.6 km/h 90 % 0 mm 0 W/m2
05:59 9.5 °C 7.9 °C 1017.8 hPa WNW 29 km/h 49.9 km/h 90 % 0 mm 0 W/m2
06:04 9.6 °C 8.2 °C 1017.8 hPa WNW 27.4 km/h 40.2 km/h 91 % 0 mm 0 W/m2
06:09 9.6 °C 8.2 °C 1017.5 hPa West 25.7 km/h 38.6 km/h 91 % 0 mm 0 W/m2
06:14 9.6 °C 8.2 °C 1017.8 hPa West 25.7 km/h 41.8 km/h 91 % 0 mm 0 W/m2
06:19 9.6 °C 8.2 °C 1017.8 hPa West 32.2 km/h 53.1 km/h 91 % 0 mm 0 W/m2
06:24 9.6 °C 8.2 °C 1017.8 hPa West 32.2 km/h 48.3 km/h 91 % 0 mm 0 W/m2
06:29 9.7 °C 8.3 °C 1017.8 hPa West 30.6 km/h 46.7 km/h 91 % 0 mm 0 W/m2
06:34 9.7 °C 8.3 °C 1017.8 hPa West 30.6 km/h 41.8 km/h 91 % 0 mm 0 W/m2
06:39 9.6 °C 8.2 °C 1017.5 hPa West 24.1 km/h 37 km/h 91 % 0 mm 0 W/m2
06:44 9.6 °C 8.2 °C 1017.8 hPa West 32.2 km/h 46.7 km/h 91 % 0 mm 0 W/m2
06:49 9.6 °C 8.2 °C 1017.5 hPa West 24.1 km/h 43.5 km/h 91 % 0 mm 0 W/m2
06:54 9.7 °C 8.3 °C 1017.8 hPa West 25.7 km/h 41.8 km/h 91 % 0 mm 0 W/m2
06:59 9.7 °C 8.3 °C 1018.2 hPa WNW 24.1 km/h 37 km/h 91 % 0 mm 0 W/m2
07:04 9.7 °C 8.3 °C 1018.2 hPa WNW 14.5 km/h 24.1 km/h 91 % 0 mm 0 W/m2
07:09 9.7 °C 8.3 °C 1018.5 hPa WNW 14.5 km/h 25.7 km/h 91 % 0 mm 0 W/m2
07:14 9.7 °C 8.3 °C 1018.5 hPa WNW 12.9 km/h 22.5 km/h 91 % 0 mm 0 W/m2
07:19 9.6 °C 8.2 °C 1018.8 hPa WNW 9.7 km/h 20.9 km/h 91 % 0 mm 0 W/m2
07:24 9.6 °C 8.2 °C 1018.8 hPa WNW 11.3 km/h 19.3 km/h 91 % 0 mm 0 W/m2
07:30 9.6 °C 8.2 °C 1018.8 hPa WNW 9.7 km/h 19.3 km/h 91 % 0 mm 5 W/m2
07:35 9.6 °C 8.2 °C 1018.8 hPa WNW 9.7 km/h 19.3 km/h 91 % 0 mm 9 W/m2
07:40 9.6 °C 8.2 °C 1018.8 hPa WNW 12.9 km/h 22.5 km/h 91 % 0 mm 11 W/m2
07:45 9.6 °C 8.4 °C 1019.2 hPa WNW 6.4 km/h 16.1 km/h 92 % 0 mm 18 W/m2
07:50 9.7 °C 8.4 °C 1019.2 hPa WNW 11.3 km/h 19.3 km/h 92 % 0 mm 16 W/m2
07:55 9.8 °C 8.6 °C 1019.2 hPa WNW 11.3 km/h 19.3 km/h 92 % 0 mm 16 W/m2
08:00 9.8 °C 8.6 °C 1019.2 hPa West 8 km/h 14.5 km/h 92 % 0 mm 23 W/m2
08:05 9.9 °C 8.7 °C 1019.2 hPa WNW 11.3 km/h 24.1 km/h 92 % 0 mm 16 W/m2
08:10 10.1 °C 8.8 °C 1019.2 hPa West 14.5 km/h 25.7 km/h 92 % 0 mm 11 W/m2
08:15 10.1 °C 8.8 °C 1019.2 hPa West 17.7 km/h 33.8 km/h 92 % 0 mm 16 W/m2
08:20 10.1 °C 8.8 °C 1019.2 hPa West 16.1 km/h 32.2 km/h 92 % 0 mm 18 W/m2
08:25 10.2 °C 8.9 °C 1019.2 hPa West 17.7 km/h 29 km/h 92 % 0 mm 16 W/m2
08:30 10.2 °C 9.1 °C 1019.2 hPa West 17.7 km/h 25.7 km/h 93 % 0 mm 26 W/m2
08:31 10.2 °C 9.1 °C 1019.2 hPa West 20.9 km/h 29 km/h 93 % 0 mm 30 W/m2
08:36 10.2 °C 9.1 °C 1019.2 hPa WNW 17.7 km/h 29 km/h 93 % 0 mm 44 W/m2
08:41 10.2 °C 9.1 °C 1019.2 hPa WNW 17.7 km/h 32.2 km/h 93 % 0 mm 49 W/m2
08:46 10.2 °C 9.1 °C 1019.2 hPa West 19.3 km/h 30.6 km/h 93 % 0 mm 58 W/m2
08:51 10.2 °C 9.1 °C 1019.5 hPa West 14.5 km/h 25.7 km/h 93 % 0 mm 54 W/m2
08:56 10.3 °C 9.2 °C 1019.5 hPa West 14.5 km/h 30.6 km/h 93 % 0 mm 62 W/m2
09:01 10.4 °C 9.3 °C 1019.5 hPa West 20.9 km/h 35.4 km/h 93 % 0 mm 63 W/m2
09:06 10.4 °C 9.3 °C 1019.5 hPa West 14.5 km/h 22.5 km/h 93 % 0 mm 97 W/m2
09:11 10.5 °C 9.4 °C 1019.5 hPa WNW 16.1 km/h 22.5 km/h 93 % 0 mm 144 W/m2
09:17 10.7 °C 9.6 °C 1019.9 hPa WNW 14.5 km/h 20.9 km/h 93 % 0 mm 183 W/m2
09:22 10.8 °C 9.7 °C 1019.5 hPa WNW 16.1 km/h 25.7 km/h 93 % 0 mm 156 W/m2
09:44 11.5 °C 10.1 °C 1019.9 hPa West 12.9 km/h 20.9 km/h 91 % 0 mm 250 W/m2
09:52 11.8 °C 10.2 °C 1019.9 hPa West 12.9 km/h 25.7 km/h 90 % 0 mm 179 W/m2
09:57 11.9 °C 10.2 °C 1019.9 hPa West 14.5 km/h 25.7 km/h 89 % 0 mm 127 W/m2
10:02 12.1 °C 10.2 °C 1019.9 hPa WNW 17.7 km/h 29 km/h 88 % 0 mm 258 W/m2
10:07 12.2 °C 10.1 °C 1019.9 hPa West 24.1 km/h 33.8 km/h 87 % 0 mm 241 W/m2
10:12 12.3 °C 10.2 °C 1019.9 hPa West 24.1 km/h 38.6 km/h 87 % 0 mm 227 W/m2
10:17 12.4 °C 10.1 °C 1019.9 hPa West 20.9 km/h 30.6 km/h 86 % 0 mm 241 W/m2
10:23 12.4 °C 10.1 °C 1019.9 hPa West 22.5 km/h 33.8 km/h 86 % 0 mm 223 W/m2
10:28 12.5 °C 10.2 °C 1019.9 hPa West 19.3 km/h 35.4 km/h 86 % 0 mm 283 W/m2
10:33 12.6 °C 10.3 °C 1019.9 hPa WNW 16.1 km/h 33.8 km/h 86 % 0 mm 287 W/m2
10:34 12.7 °C 10.4 °C 1019.9 hPa West 19.3 km/h 33.8 km/h 86 % 0 mm 327 W/m2
10:39 12.8 °C 10.3 °C 1019.9 hPa WNW 25.7 km/h 41.8 km/h 85 % 0 mm 258 W/m2
10:44 12.8 °C 10.3 °C 1019.9 hPa West 20.9 km/h 30.6 km/h 85 % 0 mm 225 W/m2
10:49 12.8 °C 10.3 °C 1019.9 hPa West 25.7 km/h 37 km/h 85 % 0 mm 213 W/m2
10:54 12.7 °C 10.2 °C 1020.2 hPa West 24.1 km/h 35.4 km/h 85 % 0 mm 155 W/m2
10:59 12.6 °C 10.2 °C 1020.2 hPa West 19.3 km/h 32.2 km/h 85 % 0 mm 130 W/m2
11:04 12.3 °C 9.8 °C 1020.2 hPa West 17.7 km/h 30.6 km/h 85 % 0 mm 79 W/m2
11:09 12.1 °C 9.8 °C 1020.2 hPa West 20.9 km/h 32.2 km/h 86 % 0 mm 70 W/m2
11:14 11.9 °C 9.8 °C 1019.9 hPa West 14.5 km/h 22.5 km/h 87 % 0 mm 81 W/m2
11:19 11.9 °C 9.8 °C 1019.9 hPa WNW 19.3 km/h 29 km/h 87 % 0 mm 90 W/m2
11:24 11.8 °C 9.9 °C 1019.9 hPa West 16.1 km/h 22.5 km/h 88 % 0 mm 93 W/m2
11:29 11.8 °C 9.9 °C 1019.9 hPa West 17.7 km/h 25.7 km/h 88 % 0 mm 90 W/m2
11:34 11.8 °C 9.9 °C 1019.9 hPa West 16.1 km/h 24.1 km/h 88 % 0 mm 86 W/m2
11:39 11.8 °C 9.9 °C 1019.9 hPa West 16.1 km/h 29 km/h 88 % 0 mm 70 W/m2
11:44 11.8 °C 9.7 °C 1019.9 hPa West 11.3 km/h 19.3 km/h 87 % 0 mm 81 W/m2
11:49 11.8 °C 9.7 °C 1019.9 hPa West 17.7 km/h 29 km/h 87 % 0 mm 107 W/m2
11:54 11.8 °C 9.7 °C 1019.9 hPa West 17.7 km/h 25.7 km/h 87 % 0 mm 104 W/m2
11:59 11.9 °C 9.8 °C 1019.9 hPa West 16.1 km/h 29 km/h 87 % 0 mm 100 W/m2
12:04 11.9 °C 9.8 °C 1019.9 hPa West 14.5 km/h 29 km/h 87 % 0 mm 105 W/m2
12:09 12 °C 9.9 °C 1019.9 hPa West 19.3 km/h 30.6 km/h 87 % 0 mm 84 W/m2
12:14 12 °C 9.9 °C 1019.9 hPa West 16.1 km/h 25.7 km/h 87 % 0 mm 72 W/m2
12:19 12.1 °C 10 °C 1019.9 hPa West 20.9 km/h 30.6 km/h 87 % 0 mm 79 W/m2
12:24 12.1 °C 10 °C 1019.9 hPa West 16.1 km/h 24.1 km/h 87 % 0 mm 100 W/m2
12:29 12.1 °C 10 °C 1019.9 hPa West 19.3 km/h 29 km/h 87 % 0 mm 114 W/m2
12:34 12.1 °C 10 °C 1019.9 hPa West 17.7 km/h 25.7 km/h 87 % 0 mm 111 W/m2
12:39 12.1 °C 10 °C 1019.9 hPa West 19.3 km/h 32.2 km/h 87 % 0 mm 107 W/m2
12:44 12.1 °C 10 °C 1019.9 hPa WNW 19.3 km/h 30.6 km/h 87 % 0 mm 113 W/m2
12:49 12.1 °C 10 °C 1019.9 hPa West 19.3 km/h 37 km/h 87 % 0 mm 114 W/m2
12:54 12.1 °C 10 °C 1019.9 hPa West 19.3 km/h 30.6 km/h 87 % 0 mm 128 W/m2
12:59 12.1 °C 10 °C 1019.9 hPa West 20.9 km/h 30.6 km/h 87 % 0 mm 130 W/m2
13:04 12.1 °C 10.2 °C 1019.9 hPa WNW 17.7 km/h 32.2 km/h 88 % 0 mm 130 W/m2
13:09 12.1 °C 10.2 °C 1019.9 hPa WNW 20.9 km/h 33.8 km/h 88 % 0 mm 125 W/m2
13:14 12.1 °C 10.2 °C 1019.9 hPa WNW 17.7 km/h 25.7 km/h 88 % 0 mm 118 W/m2
13:19 12.1 °C 10.2 °C 1019.9 hPa WNW 17.7 km/h 30.6 km/h 88 % 0 mm 118 W/m2
13:24 12.1 °C 10.2 °C 1019.9 hPa WNW 20.9 km/h 30.6 km/h 88 % 0 mm 123 W/m2
13:29 12.1 °C 10.2 °C 1019.9 hPa WNW 20.9 km/h 38.6 km/h 88 % 0 mm 105 W/m2
13:34 12.1 °C 10.2 °C 1019.5 hPa WNW 19.3 km/h 29 km/h 88 % 0 mm 104 W/m2
13:39 12.1 °C 10.2 °C 1019.5 hPa WNW 22.5 km/h 33.8 km/h 88 % 0 mm 123 W/m2
13:44 12.2 °C 10.3 °C 1019.5 hPa WNW 22.5 km/h 37 km/h 88 % 0 mm 134 W/m2
13:50 12.3 °C 10.2 °C 1019.5 hPa West 17.7 km/h 25.7 km/h 87 % 0 mm 134 W/m2
13:55 12.3 °C 10.2 °C 1019.5 hPa West 17.7 km/h 24.1 km/h 87 % 0 mm 128 W/m2
14:00 12.3 °C 10.2 °C 1019.5 hPa WNW 17.7 km/h 25.7 km/h 87 % 0 mm 116 W/m2
14:05 12.3 °C 10.2 °C 1019.5 hPa WNW 17.7 km/h 25.7 km/h 87 % 0 mm 102 W/m2
14:10 12.3 °C 10.2 °C 1019.5 hPa WNW 16.1 km/h 22.5 km/h 87 % 0 mm 91 W/m2
14:15 12.3 °C 10.2 °C 1019.5 hPa WNW 17.7 km/h 25.7 km/h 87 % 0 mm 88 W/m2
14:20 12.3 °C 10.2 °C 1019.9 hPa WNW 11.3 km/h 17.7 km/h 87 % 0 mm 90 W/m2
14:25 12.2 °C 10.1 °C 1019.9 hPa WNW 12.9 km/h 19.3 km/h 87 % 0 mm 77 W/m2
14:30 12.2 °C 10.1 °C 1019.9 hPa WNW 14.5 km/h 22.5 km/h 87 % 0 mm 72 W/m2
14:35 12.1 °C 10 °C 1019.9 hPa WNW 11.3 km/h 19.3 km/h 87 % 0 mm 79 W/m2
14:40 12.1 °C 10 °C 1019.9 hPa WNW 11.3 km/h 24.1 km/h 87 % 0 mm 97 W/m2
14:45 12.1 °C 10 °C 1019.9 hPa West 11.3 km/h 19.3 km/h 87 % 0 mm 111 W/m2
14:50 12.1 °C 10 °C 1019.9 hPa West 3.2 km/h 8 km/h 87 % 0 mm 95 W/m2
14:55 12.2 °C 10.1 °C 1019.9 hPa WSW 9.7 km/h 14.5 km/h 87 % 0 mm 79 W/m2
15:00 12.2 °C 10.1 °C 1019.9 hPa West 1.6 km/h 4.8 km/h 87 % 0 mm 65 W/m2
15:05 12.1 °C 10 °C 1019.9 hPa WSW 3.2 km/h 11.3 km/h 87 % 0 mm 60 W/m2
15:10 12.1 °C 10 °C 1019.9 hPa Calm     87 % 0 mm 49 W/m2
15:15 12.1 °C 10 °C 1019.9 hPa Calm     87 % 0 mm 42 W/m2
15:20 12.1 °C 10 °C 1019.9 hPa Calm     87 % 0 mm 37 W/m2
15:25 12.1 °C 10 °C 1019.9 hPa Calm     87 % 0 mm 28 W/m2
15:30 12 °C 9.9 °C 1019.9 hPa Calm     87 % 0 mm 23 W/m2
15:35 11.9 °C 9.8 °C 1019.9 hPa Calm   1.6 km/h 87 % 0 mm 18 W/m2
15:40 11.9 °C 9.8 °C 1019.9 hPa East 1.6 km/h 3.2 km/h 87 % 0 mm 12 W/m2
15:45 11.8 °C 9.7 °C 1019.9 hPa East 1.6 km/h 3.2 km/h 87 % 0 mm 11 W/m2
15:50 11.8 °C 9.7 °C 1020.2 hPa Calm     87 % 0 mm 9 W/m2
15:55 11.7 °C 9.6 °C 1019.9 hPa Calm     87 % 0 mm 5 W/m2
16:00 11.7 °C 9.6 °C 1020.2 hPa Calm   3.2 km/h 87 % 0 mm 5 W/m2
16:05 11.6 °C 9.7 °C 1020.2 hPa WSW 1.6 km/h 8 km/h 88 % 0 mm 0 W/m2
16:10 11.6 °C 9.5 °C 1020.2 hPa Calm   8 km/h 87 % 0 mm 0 W/m2
16:15 11.6 °C 9.5 °C 1019.9 hPa WSW 4.8 km/h 9.7 km/h 87 % 0 mm 0 W/m2
16:20 11.6 °C 9.5 °C 1019.9 hPa West 6.4 km/h 11.3 km/h 87 % 0 mm 0 W/m2
16:25 11.6 °C 9.5 °C 1019.9 hPa West 1.6 km/h 3.2 km/h 87 % 0 mm 0 W/m2
16:30 11.6 °C 9.5 °C 1019.9 hPa West 1.6 km/h 3.2 km/h 87 % 0 mm 0 W/m2
16:35 11.6 °C 9.5 °C 1019.9 hPa SW 3.2 km/h 8 km/h 87 % 0 mm 0 W/m2
16:40 11.6 °C 9.5 °C 1020.2 hPa SW 1.6 km/h 6.4 km/h 87 % 0 mm 0 W/m2
16:45 11.6 °C 9.5 °C 1020.2 hPa Calm   1.6 km/h 87 % 0 mm 0 W/m2
16:50 11.6 °C 9.5 °C 1020.2 hPa Calm     87 % 0 mm 0 W/m2
16:55 11.6 °C 9.5 °C 1020.2 hPa Calm     87 % 0 mm 0 W/m2
17:00 11.4 °C 9.3 °C 1020.2 hPa Calm     87 % 0 mm 0 W/m2
17:03 11.4 °C 9.3 °C 1020.2 hPa Calm     87 % 0 mm 0 W/m2
17:08 11.3 °C 9.2 °C 1020.2 hPa Calm     87 % 0 mm 0 W/m2
17:13 11.3 °C 9.2 °C 1020.2 hPa Calm   1.6 km/h 87 % 0 mm 0 W/m2
17:18 11.2 °C 9.1 °C 1020.2 hPa Calm   1.6 km/h 87 % 0 mm 0 W/m2
17:23 11.2 °C 9.3 °C 1020.2 hPa Calm   1.6 km/h 88 % 0 mm 0 W/m2
17:28 11.1 °C 9.2 °C 1020.2 hPa Calm     88 % 0 mm 0 W/m2
17:33 11.1 °C 9.2 °C 1020.2 hPa Calm     88 % 0 mm 0 W/m2
17:38 11.1 °C 9.2 °C 1020.5 hPa Calm     88 % 0 mm 0 W/m2
17:43 11 °C 9.1 °C 1020.2 hPa Calm     88 % 0 mm 0 W/m2
17:48 10.9 °C 9 °C 1020.5 hPa Calm   3.2 km/h 88 % 0 mm 0 W/m2
17:53 10.9 °C 9 °C 1020.2 hPa Calm   1.6 km/h 88 % 0 mm 0 W/m2
17:58 10.9 °C 9 °C 1020.2 hPa South 1.6 km/h 8 km/h 88 % 0 mm 0 W/m2
18:08 10.9 °C 9 °C 1020.2 hPa Calm     88 % 0 mm 0 W/m2
18:13 10.9 °C 9 °C 1020.2 hPa Calm   1.6 km/h 88 % 0 mm 0 W/m2
18:18 10.9 °C 9 °C 1020.2 hPa SE 1.6 km/h 6.4 km/h 88 % 0 mm 0 W/m2
18:23 10.9 °C 9 °C 1020.2 hPa SE 1.6 km/h 3.2 km/h 88 % 0 mm 0 W/m2
18:28 10.8 °C 8.9 °C 1020.2 hPa Calm     88 % 0 mm 0 W/m2
18:33 10.8 °C 8.9 °C 1020.5 hPa Calm   1.6 km/h 88 % 0 mm 0 W/m2
18:38 10.7 °C 8.9 °C 1020.5 hPa Calm     89 % 0 mm 0 W/m2
18:43 10.7 °C 8.9 °C 1020.5 hPa Calm   1.6 km/h 89 % 0 mm 0 W/m2
18:49 10.8 °C 9.1 °C 1020.5 hPa Calm     89 % 0 mm 0 W/m2
18:54 10.8 °C 9.1 °C 1020.5 hPa Calm   4.8 km/h 89 % 0 mm 0 W/m2
18:59 10.8 °C 9.1 °C 1020.5 hPa Calm   3.2 km/h 89 % 0 mm 0 W/m2
19:04 10.8 °C 9.1 °C 1020.5 hPa SE 1.6 km/h 3.2 km/h 89 % 0 mm 0 W/m2
19:09 10.7 °C 8.9 °C 1020.5 hPa Calm     89 % 0 mm 0 W/m2
19:14 10.6 °C 8.9 °C 1020.5 hPa Calm     89 % 0 mm 0 W/m2
19:19 10.5 °C 8.8 °C 1020.5 hPa Calm     89 % 0 mm 0 W/m2
19:24 10.4 °C 8.7 °C 1020.5 hPa Calm     89 % 0 mm 0 W/m2
19:29 10.4 °C 8.8 °C 1020.5 hPa SW 1.6 km/h 6.4 km/h 90 % 0 mm 0 W/m2
19:34 10.4 °C 8.8 °C 1020.5 hPa West 3.2 km/h 8 km/h 90 % 0 mm 0 W/m2
19:39 10.3 °C 8.7 °C 1020.5 hPa West 1.6 km/h 4.8 km/h 90 % 0 mm 0 W/m2
19:44 10.2 °C 8.6 °C 1020.5 hPa West 3.2 km/h 8 km/h 90 % 0 mm 0 W/m2
19:49 10.1 °C 8.6 °C 1020.5 hPa West 1.6 km/h 3.2 km/h 90 % 0 mm 0 W/m2
19:54 10 °C 8.4 °C 1020.5 hPa Calm     90 % 0 mm 0 W/m2
19:59 9.8 °C 8.2 °C 1020.5 hPa Calm     90 % 0 mm 0 W/m2
20:04 9.8 °C 8.2 °C 1020.5 hPa Calm   1.6 km/h 90 % 0 mm 0 W/m2
20:09 9.7 °C 8.3 °C 1020.5 hPa West 1.6 km/h 6.4 km/h 91 % 0 mm 0 W/m2
20:14 9.7 °C 8.3 °C 1020.5 hPa West 1.6 km/h 4.8 km/h 91 % 0 mm 0 W/m2
20:19 9.7 °C 8.4 °C 1020.5 hPa Calm   3.2 km/h 92 % 0 mm 0 W/m2
20:24 9.7 °C 8.4 °C 1020.5 hPa Calm   1.6 km/h 92 % 0 mm 0 W/m2
20:29 9.6 °C 8.4 °C 1020.5 hPa Calm   1.6 km/h 92 % 0 mm 0 W/m2
20:34 9.6 °C 8.4 °C 1020.5 hPa Calm   3.2 km/h 92 % 0 mm 0 W/m2
20:39 9.6 °C 8.4 °C 1020.5 hPa Calm     92 % 0 mm 0 W/m2
20:44 9.6 °C 8.4 °C 1020.5 hPa Calm   1.6 km/h 92 % 0 mm 0 W/m2
20:49 9.6 °C 8.4 °C 1020.5 hPa Calm   1.6 km/h 92 % 0 mm 0 W/m2
20:54 9.7 °C 8.6 °C 1020.5 hPa SE 1.6 km/h 3.2 km/h 93 % 0 mm 0 W/m2
20:59 9.8 °C 8.7 °C 1020.5 hPa ESE 3.2 km/h 6.4 km/h 93 % 0 mm 0 W/m2
21:04 9.9 °C 8.8 °C 1020.5 hPa ESE 3.2 km/h 8 km/h 93 % 0 mm 0 W/m2
21:09 10 °C 8.9 °C 1020.5 hPa East 4.8 km/h 8 km/h 93 % 0 mm 0 W/m2
21:14 10.1 °C 9 °C 1020.5 hPa ENE 3.2 km/h 9.7 km/h 93 % 0 mm 0 W/m2
21:19 10.2 °C 9.1 °C 1020.5 hPa Calm   1.6 km/h 93 % 0 mm 0 W/m2
21:25 10.2 °C 9.1 °C 1020.5 hPa Calm   1.6 km/h 93 % 0 mm 0 W/m2
21:30 10.3 °C 9.2 °C 1020.5 hPa Calm     93 % 0 mm 0 W/m2
21:35 10.3 °C 9.2 °C 1020.5 hPa NE 1.6 km/h 3.2 km/h 93 % 0 mm 0 W/m2
21:40 10.4 °C 9.3 °C 1020.5 hPa NE 3.2 km/h 6.4 km/h 93 % 0 mm 0 W/m2
21:45 10.4 °C 9.3 °C 1020.5 hPa ENE 1.6 km/h 6.4 km/h 93 % 0 mm 0 W/m2
21:50 10.5 °C 9.3 °C 1020.5 hPa Calm   1.6 km/h 92 % 0 mm 0 W/m2
21:55 10.6 °C 9.3 °C 1020.9 hPa Calm   3.2 km/h 92 % 0 mm 0 W/m2
22:00 10.6 °C 9.3 °C 1020.5 hPa Calm   1.6 km/h 92 % 0 mm 0 W/m2
22:05 10.6 °C 9.3 °C 1020.5 hPa Calm     92 % 0 mm 0 W/m2
22:10 10.5 °C 9.3 °C 1020.5 hPa SSW 3.2 km/h 9.7 km/h 92 % 0 mm 0 W/m2
22:15 10.6 °C 9.3 °C 1020.5 hPa WSW 4.8 km/h 8 km/h 92 % 0 mm 0 W/m2
22:20 10.7 °C 9.4 °C 1020.5 hPa SW 6.4 km/h 11.3 km/h 92 % 0 mm 0 W/m2
22:25 10.7 °C 9.4 °C 1020.5 hPa SW 3.2 km/h 8 km/h 92 % 0 mm 0 W/m2
22:30 10.7 °C 9.3 °C 1020.5 hPa Calm   3.2 km/h 91 % 0 mm 0 W/m2
22:35 10.7 °C 9.3 °C 1020.9 hPa SW 4.8 km/h 8 km/h 91 % 0 mm 0 W/m2
22:40 10.7 °C 9.3 °C 1020.9 hPa WSW 1.6 km/h 3.2 km/h 91 % 0 mm 0 W/m2
22:45 10.6 °C 9.2 °C 1020.9 hPa Calm     91 % 0 mm 0 W/m2
22:50 10.6 °C 9.2 °C 1020.9 hPa Calm     91 % 0 mm 0 W/m2
22:55 10.6 °C 9.2 °C 1020.9 hPa Calm     91 % 0 mm 0 W/m2
22:57 10.6 °C 9.2 °C 1020.9 hPa Calm     91 % 0 mm 0 W/m2
23:02 10.6 °C 9.3 °C 1020.9 hPa WSW 3.2 km/h 8 km/h 92 % 0 mm 0 W/m2
23:07 10.6 °C 9.3 °C 1020.9 hPa Calm   1.6 km/h 92 % 0 mm 0 W/m2
23:12 10.6 °C 9.3 °C 1020.9 hPa WSW 1.6 km/h 8 km/h 92 % 0 mm 0 W/m2
23:17 10.6 °C 9.3 °C 1020.9 hPa WSW 1.6 km/h 8 km/h 92 % 0 mm 0 W/m2
23:22 10.7 °C 9.4 °C 1020.9 hPa Calm   8 km/h 92 % 0 mm 0 W/m2
23:27 10.7 °C 9.4 °C 1020.9 hPa WNW 3.2 km/h 8 km/h 92 % 0 mm 0 W/m2
23:32 10.8 °C 9.6 °C 1020.9 hPa WNW 6.4 km/h 9.7 km/h 92 % 0 mm 0 W/m2
23:37 10.8 °C 9.6 °C 1020.9 hPa WSW 9.7 km/h 14.5 km/h 92 % 0 mm 0 W/m2
23:43 10.9 °C 9.7 °C 1021.2 hPa West 9.7 km/h 12.9 km/h 92 % 0 mm 0 W/m2
23:48 11 °C 9.7 °C 1021.2 hPa West 11.3 km/h 14.5 km/h 92 % 0 mm 0 W/m2
23:53 11.1 °C 9.7 °C 1021.2 hPa West 4.8 km/h 12.9 km/h 91 % 0 mm 0 W/m2
23:58 11.1 °C 9.7 °C 1021.2 hPa West 9.7 km/h 16.1 km/h 91 % 0 mm 0 W/m2
Delerius-Weather
Compliments of Weather Underground - 2.25 mb

Data updates at regular intervals.